sensor_id;sensor_type;location;lat;lon;timestamp;P1;durP1;ratioP1;P2;durP2;ratioP2
73585;SDS011;61865;50.232;18.614;2022-07-09T00:01:28;16.52;;;6.20;;
73585;SDS011;61865;50.232;18.614;2022-07-09T00:03:50;16.85;;;7.35;;
73585;SDS011;61865;50.232;18.614;2022-07-09T00:06:13;17.85;;;7.47;;
73585;SDS011;61865;50.232;18.614;2022-07-09T00:08:35;13.80;;;6.68;;
73585;SDS011;61865;50.232;18.614;2022-07-09T00:10:57;19.65;;;7.13;;
73585;SDS011;61865;50.232;18.614;2022-07-09T00:13:19;13.45;;;7.65;;
73585;SDS011;61865;50.232;18.614;2022-07-09T00:15:41;26.95;;;6.45;;
73585;SDS011;61865;50.232;18.614;2022-07-09T00:18:03;19.13;;;6.43;;
73585;SDS011;61865;50.232;18.614;2022-07-09T00:20:25;16.02;;;6.95;;
73585;SDS011;61865;50.232;18.614;2022-07-09T00:22:48;20.73;;;6.80;;
73585;SDS011;61865;50.232;18.614;2022-07-09T00:25:10;16.98;;;6.40;;
73585;SDS011;61865;50.232;18.614;2022-07-09T00:27:32;15.10;;;6.80;;
73585;SDS011;61865;50.232;18.614;2022-07-09T00:29:54;18.30;;;7.32;;
73585;SDS011;61865;50.232;18.614;2022-07-09T00:32:16;17.63;;;7.50;;
73585;SDS011;61865;50.232;18.614;2022-07-09T00:34:38;15.75;;;6.80;;
73585;SDS011;61865;50.232;18.614;2022-07-09T00:37:00;14.98;;;6.90;;
73585;SDS011;61865;50.232;18.614;2022-07-09T00:39:23;15.35;;;7.28;;
73585;SDS011;61865;50.232;18.614;2022-07-09T00:41:45;16.60;;;7.00;;
73585;SDS011;61865;50.232;18.614;2022-07-09T00:44:07;18.63;;;6.93;;
73585;SDS011;61865;50.232;18.614;2022-07-09T00:46:29;12.32;;;6.20;;
73585;SDS011;61865;50.232;18.614;2022-07-09T00:48:50;17.05;;;7.35;;
73585;SDS011;61865;50.232;18.614;2022-07-09T00:51:12;19.75;;;7.35;;
73585;SDS011;61865;50.232;18.614;2022-07-09T00:53:35;18.13;;;7.30;;
73585;SDS011;61865;50.232;18.614;2022-07-09T00:55:59;12.80;;;6.55;;
73585;SDS011;61865;50.232;18.614;2022-07-09T00:58:21;13.85;;;6.55;;
73585;SDS011;61865;50.232;18.614;2022-07-09T01:00:44;19.00;;;6.18;;
73585;SDS011;61865;50.232;18.614;2022-07-09T01:03:06;22.60;;;6.55;;
73585;SDS011;61865;50.232;18.614;2022-07-09T01:05:28;16.35;;;6.72;;
73585;SDS011;61865;50.232;18.614;2022-07-09T01:07:55;13.38;;;6.70;;
73585;SDS011;61865;50.232;18.614;2022-07-09T01:10:17;14.05;;;6.70;;
73585;SDS011;61865;50.232;18.614;2022-07-09T01:12:40;12.48;;;6.20;;
73585;SDS011;61865;50.232;18.614;2022-07-09T01:15:03;15.80;;;6.82;;
73585;SDS011;61865;50.232;18.614;2022-07-09T01:17:26;14.23;;;6.05;;
73585;SDS011;61865;50.232;18.614;2022-07-09T01:19:47;11.48;;;6.45;;
73585;SDS011;61865;50.232;18.614;2022-07-09T01:22:11;15.63;;;6.43;;
73585;SDS011;61865;50.232;18.614;2022-07-09T01:24:33;12.20;;;5.68;;
73585;SDS011;61865;50.232;18.614;2022-07-09T01:26:55;13.27;;;6.05;;
73585;SDS011;61865;50.232;18.614;2022-07-09T01:29:18;13.43;;;6.40;;
73585;SDS011;61865;50.232;18.614;2022-07-09T01:31:40;15.55;;;6.03;;
73585;SDS011;61865;50.232;18.614;2022-07-09T01:34:02;10.27;;;5.78;;
73585;SDS011;61865;50.232;18.614;2022-07-09T01:36:23;13.40;;;4.80;;
73585;SDS011;61865;50.232;18.614;2022-07-09T01:38:46;12.25;;;5.03;;
73585;SDS011;61865;50.232;18.614;2022-07-09T01:41:08;11.18;;;5.32;;
73585;SDS011;61865;50.232;18.614;2022-07-09T01:43:30;10.35;;;5.25;;
73585;SDS011;61865;50.232;18.614;2022-07-09T01:45:53;13.77;;;5.53;;
73585;SDS011;61865;50.232;18.614;2022-07-09T01:48:15;26.45;;;6.80;;
73585;SDS011;61865;50.232;18.614;2022-07-09T01:50:37;11.13;;;6.00;;
73585;SDS011;61865;50.232;18.614;2022-07-09T01:52:59;14.77;;;6.18;;
73585;SDS011;61865;50.232;18.614;2022-07-09T01:55:22;16.02;;;6.00;;
73585;SDS011;61865;50.232;18.614;2022-07-09T01:57:44;9.43;;;6.05;;
73585;SDS011;61865;50.232;18.614;2022-07-09T02:00:06;9.55;;;5.55;;
73585;SDS011;61865;50.232;18.614;2022-07-09T02:02:29;12.90;;;5.55;;
73585;SDS011;61865;50.232;18.614;2022-07-09T02:04:50;18.58;;;5.38;;
73585;SDS011;61865;50.232;18.614;2022-07-09T02:07:12;10.75;;;5.72;;
73585;SDS011;61865;50.232;18.614;2022-07-09T02:09:34;15.98;;;5.68;;
73585;SDS011;61865;50.232;18.614;2022-07-09T02:11:57;12.73;;;5.78;;
73585;SDS011;61865;50.232;18.614;2022-07-09T02:14:19;13.00;;;5.63;;
73585;SDS011;61865;50.232;18.614;2022-07-09T02:16:41;11.35;;;5.50;;
73585;SDS011;61865;50.232;18.614;2022-07-09T02:19:03;13.57;;;6.03;;
73585;SDS011;61865;50.232;18.614;2022-07-09T02:21:26;9.82;;;5.78;;
73585;SDS011;61865;50.232;18.614;2022-07-09T02:23:48;11.85;;;5.78;;
73585;SDS011;61865;50.232;18.614;2022-07-09T02:26:09;11.23;;;5.55;;
73585;SDS011;61865;50.232;18.614;2022-07-09T02:30:56;14.48;;;7.00;;
73585;SDS011;61865;50.232;18.614;2022-07-09T02:33:18;13.05;;;6.95;;
73585;SDS011;61865;50.232;18.614;2022-07-09T02:35:40;13.40;;;6.63;;
73585;SDS011;61865;50.232;18.614;2022-07-09T02:38:03;18.08;;;7.50;;
73585;SDS011;61865;50.232;18.614;2022-07-09T02:40:24;16.33;;;8.10;;
73585;SDS011;61865;50.232;18.614;2022-07-09T02:42:46;14.55;;;7.50;;
73585;SDS011;61865;50.232;18.614;2022-07-09T02:45:10;16.67;;;7.00;;
73585;SDS011;61865;50.232;18.614;2022-07-09T02:47:31;13.52;;;6.32;;
73585;SDS011;61865;50.232;18.614;2022-07-09T02:49:53;14.20;;;6.90;;
73585;SDS011;61865;50.232;18.614;2022-07-09T02:52:16;13.07;;;7.07;;
73585;SDS011;61865;50.232;18.614;2022-07-09T02:54:38;13.85;;;6.82;;
73585;SDS011;61865;50.232;18.614;2022-07-09T02:57:00;16.48;;;6.10;;
73585;SDS011;61865;50.232;18.614;2022-07-09T02:59:22;14.85;;;5.82;;
73585;SDS011;61865;50.232;18.614;2022-07-09T03:01:45;13.05;;;6.80;;
73585;SDS011;61865;50.232;18.614;2022-07-09T03:04:08;10.27;;;5.78;;
73585;SDS011;61865;50.232;18.614;2022-07-09T03:06:29;15.57;;;6.40;;
73585;SDS011;61865;50.232;18.614;2022-07-09T03:08:51;9.75;;;6.03;;
73585;SDS011;61865;50.232;18.614;2022-07-09T03:11:13;12.30;;;6.55;;
73585;SDS011;61865;50.232;18.614;2022-07-09T03:13:35;11.40;;;7.25;;
73585;SDS011;61865;50.232;18.614;2022-07-09T03:15:57;12.20;;;6.63;;
73585;SDS011;61865;50.232;18.614;2022-07-09T03:18:20;11.50;;;7.03;;
73585;SDS011;61865;50.232;18.614;2022-07-09T03:20:42;9.38;;;6.95;;
73585;SDS011;61865;50.232;18.614;2022-07-09T03:23:04;15.13;;;6.38;;
73585;SDS011;61865;50.232;18.614;2022-07-09T03:25:27;16.52;;;7.32;;
73585;SDS011;61865;50.232;18.614;2022-07-09T03:27:48;16.75;;;6.68;;
73585;SDS011;61865;50.232;18.614;2022-07-09T03:30:10;13.30;;;6.60;;
73585;SDS011;61865;50.232;18.614;2022-07-09T03:32:32;17.95;;;6.93;;
73585;SDS011;61865;50.232;18.614;2022-07-09T03:34:55;12.80;;;6.78;;
73585;SDS011;61865;50.232;18.614;2022-07-09T03:37:17;13.55;;;7.53;;
73585;SDS011;61865;50.232;18.614;2022-07-09T03:39:39;11.75;;;7.00;;
73585;SDS011;61865;50.232;18.614;2022-07-09T03:42:01;11.00;;;6.88;;
73585;SDS011;61865;50.232;18.614;2022-07-09T03:44:25;14.82;;;7.38;;
73585;SDS011;61865;50.232;18.614;2022-07-09T03:46:47;19.00;;;7.28;;
73585;SDS011;61865;50.232;18.614;2022-07-09T03:49:09;12.88;;;6.57;;
73585;SDS011;61865;50.232;18.614;2022-07-09T03:51:33;17.35;;;7.40;;
73585;SDS011;61865;50.232;18.614;2022-07-09T03:53:54;12.32;;;6.25;;
73585;SDS011;61865;50.232;18.614;2022-07-09T03:56:16;12.40;;;7.05;;
73585;SDS011;61865;50.232;18.614;2022-07-09T03:58:40;16.88;;;7.05;;
73585;SDS011;61865;50.232;18.614;2022-07-09T04:01:03;14.32;;;6.28;;
73585;SDS011;61865;50.232;18.614;2022-07-09T04:03:25;17.05;;;6.20;;
73585;SDS011;61865;50.232;18.614;2022-07-09T04:05:47;12.07;;;6.13;;
73585;SDS011;61865;50.232;18.614;2022-07-09T04:08:10;13.98;;;6.60;;
73585;SDS011;61865;50.232;18.614;2022-07-09T04:10:32;18.27;;;5.97;;
73585;SDS011;61865;50.232;18.614;2022-07-09T04:12:54;11.55;;;6.05;;
73585;SDS011;61865;50.232;18.614;2022-07-09T04:15:16;13.90;;;6.70;;
73585;SDS011;61865;50.232;18.614;2022-07-09T04:17:38;14.68;;;6.20;;
73585;SDS011;61865;50.232;18.614;2022-07-09T04:20:00;11.38;;;6.43;;
73585;SDS011;61865;50.232;18.614;2022-07-09T04:22:22;12.15;;;6.57;;
73585;SDS011;61865;50.232;18.614;2022-07-09T04:24:45;14.23;;;6.32;;
73585;SDS011;61865;50.232;18.614;2022-07-09T04:27:07;14.90;;;6.55;;
73585;SDS011;61865;50.232;18.614;2022-07-09T04:29:29;12.57;;;6.13;;
73585;SDS011;61865;50.232;18.614;2022-07-09T04:31:50;14.48;;;5.78;;
73585;SDS011;61865;50.232;18.614;2022-07-09T04:34:12;11.13;;;5.95;;
73585;SDS011;61865;50.232;18.614;2022-07-09T04:36:34;15.90;;;6.63;;
73585;SDS011;61865;50.232;18.614;2022-07-09T04:38:56;14.90;;;6.93;;
73585;SDS011;61865;50.232;18.614;2022-07-09T04:41:19;13.98;;;7.07;;
73585;SDS011;61865;50.232;18.614;2022-07-09T04:43:41;18.33;;;6.40;;
73585;SDS011;61865;50.232;18.614;2022-07-09T04:46:03;15.13;;;6.97;;
73585;SDS011;61865;50.232;18.614;2022-07-09T04:48:25;15.65;;;6.47;;
73585;SDS011;61865;50.232;18.614;2022-07-09T04:50:47;17.75;;;6.50;;
73585;SDS011;61865;50.232;18.614;2022-07-09T04:53:09;16.30;;;7.07;;
73585;SDS011;61865;50.232;18.614;2022-07-09T04:55:31;16.30;;;6.78;;
73585;SDS011;61865;50.232;18.614;2022-07-09T04:57:54;15.20;;;6.35;;
73585;SDS011;61865;50.232;18.614;2022-07-09T05:00:16;12.80;;;6.00;;
73585;SDS011;61865;50.232;18.614;2022-07-09T05:02:38;15.05;;;5.43;;
73585;SDS011;61865;50.232;18.614;2022-07-09T05:05:00;14.25;;;4.85;;
73585;SDS011;61865;50.232;18.614;2022-07-09T05:07:23;13.10;;;5.40;;
73585;SDS011;61865;50.232;18.614;2022-07-09T05:09:45;20.00;;;6.35;;
73585;SDS011;61865;50.232;18.614;2022-07-09T05:12:07;18.55;;;5.97;;
73585;SDS011;61865;50.232;18.614;2022-07-09T05:14:31;14.35;;;5.90;;
73585;SDS011;61865;50.232;18.614;2022-07-09T05:16:53;12.30;;;5.78;;
73585;SDS011;61865;50.232;18.614;2022-07-09T05:19:15;15.25;;;5.90;;
73585;SDS011;61865;50.232;18.614;2022-07-09T05:21:37;14.90;;;5.72;;
73585;SDS011;61865;50.232;18.614;2022-07-09T05:23:59;12.63;;;5.40;;
73585;SDS011;61865;50.232;18.614;2022-07-09T05:26:22;12.82;;;5.30;;
73585;SDS011;61865;50.232;18.614;2022-07-09T05:28:43;13.05;;;5.00;;
73585;SDS011;61865;50.232;18.614;2022-07-09T05:31:07;14.88;;;5.60;;
73585;SDS011;61865;50.232;18.614;2022-07-09T05:33:29;16.08;;;5.15;;
73585;SDS011;61865;50.232;18.614;2022-07-09T05:35:52;11.05;;;5.03;;
73585;SDS011;61865;50.232;18.614;2022-07-09T05:38:14;8.90;;;4.60;;
73585;SDS011;61865;50.232;18.614;2022-07-09T05:40:36;13.30;;;5.32;;
73585;SDS011;61865;50.232;18.614;2022-07-09T05:42:58;11.27;;;4.05;;
73585;SDS011;61865;50.232;18.614;2022-07-09T05:45:19;12.75;;;3.95;;
73585;SDS011;61865;50.232;18.614;2022-07-09T05:47:43;8.75;;;3.80;;
73585;SDS011;61865;50.232;18.614;2022-07-09T05:50:05;19.67;;;4.50;;
73585;SDS011;61865;50.232;18.614;2022-07-09T05:52:27;16.42;;;4.20;;
73585;SDS011;61865;50.232;18.614;2022-07-09T05:54:49;7.57;;;3.40;;
73585;SDS011;61865;50.232;18.614;2022-07-09T05:57:11;10.23;;;3.45;;
73585;SDS011;61865;50.232;18.614;2022-07-09T05:59:33;11.00;;;4.32;;
73585;SDS011;61865;50.232;18.614;2022-07-09T06:01:55;10.52;;;3.53;;
73585;SDS011;61865;50.232;18.614;2022-07-09T06:04:18;9.93;;;3.42;;
73585;SDS011;61865;50.232;18.614;2022-07-09T06:06:40;9.95;;;2.83;;
73585;SDS011;61865;50.232;18.614;2022-07-09T06:09:02;9.90;;;3.47;;
73585;SDS011;61865;50.232;18.614;2022-07-09T06:11:24;14.23;;;3.72;;
73585;SDS011;61865;50.232;18.614;2022-07-09T06:13:45;10.55;;;3.67;;
73585;SDS011;61865;50.232;18.614;2022-07-09T06:16:07;10.68;;;3.20;;
73585;SDS011;61865;50.232;18.614;2022-07-09T06:18:29;12.43;;;3.42;;
73585;SDS011;61865;50.232;18.614;2022-07-09T06:20:52;11.20;;;3.50;;
73585;SDS011;61865;50.232;18.614;2022-07-09T06:23:15;8.50;;;3.65;;
73585;SDS011;61865;50.232;18.614;2022-07-09T06:25:37;11.40;;;3.72;;
73585;SDS011;61865;50.232;18.614;2022-07-09T06:27:59;12.57;;;3.85;;
73585;SDS011;61865;50.232;18.614;2022-07-09T06:30:21;8.57;;;3.30;;
73585;SDS011;61865;50.232;18.614;2022-07-09T06:32:43;10.77;;;3.35;;
73585;SDS011;61865;50.232;18.614;2022-07-09T06:35:05;8.05;;;3.30;;
73585;SDS011;61865;50.232;18.614;2022-07-09T06:37:29;11.43;;;2.88;;
73585;SDS011;61865;50.232;18.614;2022-07-09T06:39:51;8.10;;;3.10;;
73585;SDS011;61865;50.232;18.614;2022-07-09T06:42:16;8.65;;;3.25;;
73585;SDS011;61865;50.232;18.614;2022-07-09T06:44:38;11.77;;;3.45;;
73585;SDS011;61865;50.232;18.614;2022-07-09T06:47:01;6.72;;;2.88;;
73585;SDS011;61865;50.232;18.614;2022-07-09T06:49:23;11.93;;;3.50;;
73585;SDS011;61865;50.232;18.614;2022-07-09T06:51:45;16.52;;;9.20;;
73585;SDS011;61865;50.232;18.614;2022-07-09T06:54:08;14.90;;;3.38;;
73585;SDS011;61865;50.232;18.614;2022-07-09T06:56:30;8.90;;;3.03;;
73585;SDS011;61865;50.232;18.614;2022-07-09T06:58:51;11.73;;;3.45;;
73585;SDS011;61865;50.232;18.614;2022-07-09T07:01:13;11.57;;;3.05;;
73585;SDS011;61865;50.232;18.614;2022-07-09T07:03:35;14.25;;;3.03;;
73585;SDS011;61865;50.232;18.614;2022-07-09T07:05:57;14.07;;;3.60;;
73585;SDS011;61865;50.232;18.614;2022-07-09T07:08:19;11.13;;;3.05;;
73585;SDS011;61865;50.232;18.614;2022-07-09T07:10:42;7.38;;;2.80;;
73585;SDS011;61865;50.232;18.614;2022-07-09T07:13:04;10.38;;;3.28;;
73585;SDS011;61865;50.232;18.614;2022-07-09T07:15:26;12.20;;;3.63;;
73585;SDS011;61865;50.232;18.614;2022-07-09T07:17:48;8.82;;;2.88;;
73585;SDS011;61865;50.232;18.614;2022-07-09T07:20:10;10.55;;;3.22;;
73585;SDS011;61865;50.232;18.614;2022-07-09T07:22:32;13.18;;;3.22;;
73585;SDS011;61865;50.232;18.614;2022-07-09T07:24:55;11.10;;;3.58;;
73585;SDS011;61865;50.232;18.614;2022-07-09T07:27:18;11.73;;;2.83;;
73585;SDS011;61865;50.232;18.614;2022-07-09T07:29:40;11.95;;;3.25;;
73585;SDS011;61865;50.232;18.614;2022-07-09T07:32:01;8.85;;;2.85;;
73585;SDS011;61865;50.232;18.614;2022-07-09T07:34:24;10.27;;;2.95;;
73585;SDS011;61865;50.232;18.614;2022-07-09T07:36:45;7.82;;;2.80;;
73585;SDS011;61865;50.232;18.614;2022-07-09T07:39:07;7.05;;;2.97;;
73585;SDS011;61865;50.232;18.614;2022-07-09T07:41:29;6.35;;;3.05;;
73585;SDS011;61865;50.232;18.614;2022-07-09T07:43:53;6.95;;;2.88;;
73585;SDS011;61865;50.232;18.614;2022-07-09T07:46:14;11.93;;;2.90;;
73585;SDS011;61865;50.232;18.614;2022-07-09T07:48:36;7.90;;;2.97;;
73585;SDS011;61865;50.232;18.614;2022-07-09T07:51:01;6.25;;;3.15;;
73585;SDS011;61865;50.232;18.614;2022-07-09T07:53:23;7.65;;;3.25;;
73585;SDS011;61865;50.232;18.614;2022-07-09T07:55:45;11.82;;;3.17;;
73585;SDS011;61865;50.232;18.614;2022-07-09T07:58:07;6.53;;;2.95;;
73585;SDS011;61865;50.232;18.614;2022-07-09T08:00:30;9.32;;;3.40;;
73585;SDS011;61865;50.232;18.614;2022-07-09T08:02:52;7.57;;;3.00;;
73585;SDS011;61865;50.232;18.614;2022-07-09T08:05:14;5.47;;;2.90;;
73585;SDS011;61865;50.232;18.614;2022-07-09T08:07:36;8.45;;;3.40;;
73585;SDS011;61865;50.232;18.614;2022-07-09T08:09:58;6.80;;;2.70;;
73585;SDS011;61865;50.232;18.614;2022-07-09T08:12:20;9.07;;;3.20;;
73585;SDS011;61865;50.232;18.614;2022-07-09T08:14:42;7.57;;;2.75;;
73585;SDS011;61865;50.232;18.614;2022-07-09T08:17:05;11.45;;;2.95;;
73585;SDS011;61865;50.232;18.614;2022-07-09T08:19:27;5.15;;;2.33;;
73585;SDS011;61865;50.232;18.614;2022-07-09T08:21:49;5.03;;;2.47;;
73585;SDS011;61865;50.232;18.614;2022-07-09T08:24:11;7.05;;;2.05;;
73585;SDS011;61865;50.232;18.614;2022-07-09T08:26:32;8.57;;;2.40;;
73585;SDS011;61865;50.232;18.614;2022-07-09T08:28:54;4.95;;;2.00;;
73585;SDS011;61865;50.232;18.614;2022-07-09T08:31:17;4.40;;;1.80;;
73585;SDS011;61865;50.232;18.614;2022-07-09T08:33:41;8.95;;;2.22;;
73585;SDS011;61865;50.232;18.614;2022-07-09T08:36:03;5.93;;;2.20;;
73585;SDS011;61865;50.232;18.614;2022-07-09T08:38:25;5.47;;;1.98;;
73585;SDS011;61865;50.232;18.614;2022-07-09T08:40:48;5.22;;;2.17;;
73585;SDS011;61865;50.232;18.614;2022-07-09T08:43:10;5.22;;;2.13;;
73585;SDS011;61865;50.232;18.614;2022-07-09T08:45:32;5.18;;;2.15;;
73585;SDS011;61865;50.232;18.614;2022-07-09T08:47:56;5.40;;;2.10;;
73585;SDS011;61865;50.232;18.614;2022-07-09T08:50:20;4.55;;;2.42;;
73585;SDS011;61865;50.232;18.614;2022-07-09T08:52:42;6.20;;;2.13;;
73585;SDS011;61865;50.232;18.614;2022-07-09T08:55:04;4.50;;;2.10;;
73585;SDS011;61865;50.232;18.614;2022-07-09T08:57:28;9.35;;;2.30;;
73585;SDS011;61865;50.232;18.614;2022-07-09T08:59:50;4.05;;;2.00;;
73585;SDS011;61865;50.232;18.614;2022-07-09T09:02:12;5.65;;;2.28;;
73585;SDS011;61865;50.232;18.614;2022-07-09T09:04:34;6.55;;;2.17;;
73585;SDS011;61865;50.232;18.614;2022-07-09T09:07:01;4.60;;;2.15;;
73585;SDS011;61865;50.232;18.614;2022-07-09T09:09:34;6.78;;;2.63;;
73585;SDS011;61865;50.232;18.614;2022-07-09T09:11:56;4.55;;;2.15;;
73585;SDS011;61865;50.232;18.614;2022-07-09T09:14:19;6.05;;;2.20;;
73585;SDS011;61865;50.232;18.614;2022-07-09T09:16:42;6.30;;;1.92;;
73585;SDS011;61865;50.232;18.614;2022-07-09T09:19:04;4.18;;;1.90;;
73585;SDS011;61865;50.232;18.614;2022-07-09T09:21:27;13.77;;;2.10;;
73585;SDS011;61865;50.232;18.614;2022-07-09T09:23:50;6.50;;;2.60;;
73585;SDS011;61865;50.232;18.614;2022-07-09T09:26:14;4.50;;;1.70;;
73585;SDS011;61865;50.232;18.614;2022-07-09T09:28:46;7.63;;;2.20;;
73585;SDS011;61865;50.232;18.614;2022-07-09T09:31:17;5.32;;;1.95;;
73585;SDS011;61865;50.232;18.614;2022-07-09T09:33:40;7.00;;;1.90;;
73585;SDS011;61865;50.232;18.614;2022-07-09T09:36:01;5.45;;;1.80;;
73585;SDS011;61865;50.232;18.614;2022-07-09T09:38:24;5.60;;;1.90;;
73585;SDS011;61865;50.232;18.614;2022-07-09T09:40:50;4.43;;;1.73;;
73585;SDS011;61865;50.232;18.614;2022-07-09T09:43:12;4.82;;;1.80;;
73585;SDS011;61865;50.232;18.614;2022-07-09T09:45:39;4.40;;;1.80;;
73585;SDS011;61865;50.232;18.614;2022-07-09T09:48:01;4.97;;;1.67;;
73585;SDS011;61865;50.232;18.614;2022-07-09T09:50:25;4.47;;;1.90;;
73585;SDS011;61865;50.232;18.614;2022-07-09T09:52:49;5.65;;;2.17;;
73585;SDS011;61865;50.232;18.614;2022-07-09T09:55:12;8.25;;;1.85;;
73585;SDS011;61865;50.232;18.614;2022-07-09T09:57:36;4.65;;;1.88;;
73585;SDS011;61865;50.232;18.614;2022-07-09T10:00:00;8.50;;;2.00;;
73585;SDS011;61865;50.232;18.614;2022-07-09T10:02:22;6.25;;;2.05;;
73585;SDS011;61865;50.232;18.614;2022-07-09T10:04:46;6.80;;;2.00;;
73585;SDS011;61865;50.232;18.614;2022-07-09T10:07:08;5.85;;;2.00;;
73585;SDS011;61865;50.232;18.614;2022-07-09T10:09:32;8.95;;;2.17;;
73585;SDS011;61865;50.232;18.614;2022-07-09T10:11:54;3.75;;;1.60;;
73585;SDS011;61865;50.232;18.614;2022-07-09T10:14:17;3.63;;;1.75;;
73585;SDS011;61865;50.232;18.614;2022-07-09T10:16:51;4.40;;;1.75;;
73585;SDS011;61865;50.232;18.614;2022-07-09T10:19:24;3.75;;;1.65;;
73585;SDS011;61865;50.232;18.614;2022-07-09T10:21:50;7.90;;;1.95;;
73585;SDS011;61865;50.232;18.614;2022-07-09T10:24:13;3.22;;;1.70;;
73585;SDS011;61865;50.232;18.614;2022-07-09T10:26:45;6.93;;;1.90;;
73585;SDS011;61865;50.232;18.614;2022-07-09T10:29:18;4.25;;;1.60;;
73585;SDS011;61865;50.232;18.614;2022-07-09T10:31:45;7.00;;;1.70;;
73585;SDS011;61865;50.232;18.614;2022-07-09T10:34:07;3.35;;;1.80;;
73585;SDS011;61865;50.232;18.614;2022-07-09T10:36:37;3.63;;;1.65;;
73585;SDS011;61865;50.232;18.614;2022-07-09T10:39:10;2.70;;;1.67;;
73585;SDS011;61865;50.232;18.614;2022-07-09T10:41:33;5.40;;;1.92;;
73585;SDS011;61865;50.232;18.614;2022-07-09T10:43:55;3.80;;;1.83;;
73585;SDS011;61865;50.232;18.614;2022-07-09T10:46:18;5.13;;;1.85;;
73585;SDS011;61865;50.232;18.614;2022-07-09T10:48:40;3.65;;;1.70;;
73585;SDS011;61865;50.232;18.614;2022-07-09T10:51:03;5.93;;;2.00;;
73585;SDS011;61865;50.232;18.614;2022-07-09T10:53:27;4.65;;;1.80;;
73585;SDS011;61865;50.232;18.614;2022-07-09T10:55:50;5.28;;;1.90;;
73585;SDS011;61865;50.232;18.614;2022-07-09T10:58:16;3.55;;;1.83;;
73585;SDS011;61865;50.232;18.614;2022-07-09T11:00:38;8.57;;;1.70;;
73585;SDS011;61865;50.232;18.614;2022-07-09T11:03:01;2.95;;;1.75;;
73585;SDS011;61865;50.232;18.614;2022-07-09T11:05:25;4.65;;;2.30;;
73585;SDS011;61865;50.232;18.614;2022-07-09T11:07:54;3.70;;;1.83;;
73585;SDS011;61865;50.232;18.614;2022-07-09T11:10:18;2.88;;;1.88;;
73585;SDS011;61865;50.232;18.614;2022-07-09T11:12:46;5.22;;;1.95;;
73585;SDS011;61865;50.232;18.614;2022-07-09T11:15:15;7.95;;;2.28;;
73585;SDS011;61865;50.232;18.614;2022-07-09T11:17:37;3.97;;;2.15;;
73585;SDS011;61865;50.232;18.614;2022-07-09T11:20:01;3.75;;;1.80;;
73585;SDS011;61865;50.232;18.614;2022-07-09T11:22:23;2.33;;;1.60;;
73585;SDS011;61865;50.232;18.614;2022-07-09T11:24:45;5.10;;;2.05;;
73585;SDS011;61865;50.232;18.614;2022-07-09T11:27:07;4.35;;;2.20;;
73585;SDS011;61865;50.232;18.614;2022-07-09T11:29:29;4.60;;;1.98;;
73585;SDS011;61865;50.232;18.614;2022-07-09T11:31:51;4.60;;;1.90;;
73585;SDS011;61865;50.232;18.614;2022-07-09T11:34:14;2.58;;;1.63;;
73585;SDS011;61865;50.232;18.614;2022-07-09T11:36:37;5.47;;;2.33;;
73585;SDS011;61865;50.232;18.614;2022-07-09T11:39:00;4.40;;;1.90;;
73585;SDS011;61865;50.232;18.614;2022-07-09T11:41:21;2.80;;;1.70;;
73585;SDS011;61865;50.232;18.614;2022-07-09T11:43:45;4.32;;;2.25;;
73585;SDS011;61865;50.232;18.614;2022-07-09T11:46:07;6.25;;;2.00;;
73585;SDS011;61865;50.232;18.614;2022-07-09T11:48:29;3.15;;;1.70;;
73585;SDS011;61865;50.232;18.614;2022-07-09T11:50:51;2.42;;;1.70;;
73585;SDS011;61865;50.232;18.614;2022-07-09T11:53:20;2.80;;;1.60;;
73585;SDS011;61865;50.232;18.614;2022-07-09T11:55:42;4.50;;;2.20;;
73585;SDS011;61865;50.232;18.614;2022-07-09T11:58:05;3.38;;;1.77;;
73585;SDS011;61865;50.232;18.614;2022-07-09T12:00:29;4.05;;;1.80;;
73585;SDS011;61865;50.232;18.614;2022-07-09T12:02:52;4.65;;;1.90;;
73585;SDS011;61865;50.232;18.614;2022-07-09T12:05:23;4.20;;;1.90;;
73585;SDS011;61865;50.232;18.614;2022-07-09T12:07:50;2.85;;;1.88;;
73585;SDS011;61865;50.232;18.614;2022-07-09T12:10:14;3.17;;;1.90;;
73585;SDS011;61865;50.232;18.614;2022-07-09T12:12:36;2.97;;;1.90;;
73585;SDS011;61865;50.232;18.614;2022-07-09T12:14:58;4.43;;;2.00;;
73585;SDS011;61865;50.232;18.614;2022-07-09T12:17:22;2.22;;;1.70;;
73585;SDS011;61865;50.232;18.614;2022-07-09T12:19:45;2.30;;;1.70;;
73585;SDS011;61865;50.232;18.614;2022-07-09T12:22:07;14.07;;;1.80;;
73585;SDS011;61865;50.232;18.614;2022-07-09T12:24:28;2.83;;;1.70;;
73585;SDS011;61865;50.232;18.614;2022-07-09T12:26:52;2.65;;;1.80;;
73585;SDS011;61865;50.232;18.614;2022-07-09T12:29:13;3.88;;;1.95;;
73585;SDS011;61865;50.232;18.614;2022-07-09T12:31:35;4.43;;;1.65;;
73585;SDS011;61865;50.232;18.614;2022-07-09T12:33:57;5.05;;;1.80;;
73585;SDS011;61865;50.232;18.614;2022-07-09T12:36:20;3.40;;;1.55;;
73585;SDS011;61865;50.232;18.614;2022-07-09T12:38:42;3.55;;;1.80;;
73585;SDS011;61865;50.232;18.614;2022-07-09T12:41:04;2.15;;;1.80;;
73585;SDS011;61865;50.232;18.614;2022-07-09T12:43:27;3.17;;;2.13;;
73585;SDS011;61865;50.232;18.614;2022-07-09T12:45:49;2.97;;;1.65;;
73585;SDS011;61865;50.232;18.614;2022-07-09T12:48:11;3.45;;;2.17;;
73585;SDS011;61865;50.232;18.614;2022-07-09T12:50:33;2.45;;;1.90;;
73585;SDS011;61865;50.232;18.614;2022-07-09T12:52:55;6.57;;;2.05;;
73585;SDS011;61865;50.232;18.614;2022-07-09T12:55:16;2.55;;;1.55;;
73585;SDS011;61865;50.232;18.614;2022-07-09T12:57:38;5.72;;;1.85;;
73585;SDS011;61865;50.232;18.614;2022-07-09T13:00:02;3.30;;;1.80;;
73585;SDS011;61865;50.232;18.614;2022-07-09T13:02:25;7.15;;;1.90;;
73585;SDS011;61865;50.232;18.614;2022-07-09T13:04:47;3.83;;;1.90;;
73585;SDS011;61865;50.232;18.614;2022-07-09T13:07:09;3.30;;;1.67;;
73585;SDS011;61865;50.232;18.614;2022-07-09T13:09:30;8.35;;;2.17;;
73585;SDS011;61865;50.232;18.614;2022-07-09T13:11:54;3.05;;;1.70;;
73585;SDS011;61865;50.232;18.614;2022-07-09T13:14:16;2.63;;;1.70;;
73585;SDS011;61865;50.232;18.614;2022-07-09T13:16:39;4.05;;;1.90;;
73585;SDS011;61865;50.232;18.614;2022-07-09T13:19:01;4.95;;;1.70;;
73585;SDS011;61865;50.232;18.614;2022-07-09T13:21:23;2.72;;;1.63;;
73585;SDS011;61865;50.232;18.614;2022-07-09T13:23:45;2.92;;;1.73;;
73585;SDS011;61865;50.232;18.614;2022-07-09T13:26:08;4.07;;;1.80;;
73585;SDS011;61865;50.232;18.614;2022-07-09T13:28:30;4.32;;;1.60;;
73585;SDS011;61865;50.232;18.614;2022-07-09T13:30:52;4.57;;;1.85;;
73585;SDS011;61865;50.232;18.614;2022-07-09T13:33:16;2.95;;;1.70;;
73585;SDS011;61865;50.232;18.614;2022-07-09T13:35:37;6.03;;;2.03;;
73585;SDS011;61865;50.232;18.614;2022-07-09T13:38:00;2.13;;;1.58;;
73585;SDS011;61865;50.232;18.614;2022-07-09T13:40:22;2.13;;;1.70;;
73585;SDS011;61865;50.232;18.614;2022-07-09T13:42:44;2.78;;;1.70;;
73585;SDS011;61865;50.232;18.614;2022-07-09T13:45:06;2.00;;;1.45;;
73585;SDS011;61865;50.232;18.614;2022-07-09T13:47:29;4.75;;;1.40;;
73585;SDS011;61865;50.232;18.614;2022-07-09T13:49:53;1.30;;;1.20;;
73585;SDS011;61865;50.232;18.614;2022-07-09T13:52:16;3.55;;;1.40;;
73585;SDS011;61865;50.232;18.614;2022-07-09T13:54:38;1.52;;;1.40;;
73585;SDS011;61865;50.232;18.614;2022-07-09T13:56:59;3.58;;;1.45;;
73585;SDS011;61865;50.232;18.614;2022-07-09T13:59:21;2.13;;;1.27;;
73585;SDS011;61865;50.232;18.614;2022-07-09T14:01:43;3.70;;;1.30;;
73585;SDS011;61865;50.232;18.614;2022-07-09T14:04:05;5.18;;;1.63;;